sensor_id;sensor_type;location;lat;lon;timestamp;P1;durP1;ratioP1;P2;durP2;ratioP2
57319;SDS011;43158;51.026;18.190;2023-02-15T00:01:24;47.70;;;31.50;;
57319;SDS011;43158;51.026;18.190;2023-02-15T00:03:51;37.50;;;29.40;;
57319;SDS011;43158;51.026;18.190;2023-02-15T00:06:18;37.90;;;26.80;;
57319;SDS011;43158;51.026;18.190;2023-02-15T00:08:44;86.40;;;56.30;;
57319;SDS011;43158;51.026;18.190;2023-02-15T00:11:15;64.00;;;43.90;;
57319;SDS011;43158;51.026;18.190;2023-02-15T00:13:42;36.40;;;26.80;;
57319;SDS011;43158;51.026;18.190;2023-02-15T00:16:10;49.80;;;37.40;;
57319;SDS011;43158;51.026;18.190;2023-02-15T00:18:37;31.60;;;22.80;;
57319;SDS011;43158;51.026;18.190;2023-02-15T00:21:04;23.90;;;19.40;;
57319;SDS011;43158;51.026;18.190;2023-02-15T00:23:31;27.20;;;20.30;;
57319;SDS011;43158;51.026;18.190;2023-02-15T00:26:31;30.00;;;22.10;;
57319;SDS011;43158;51.026;18.190;2023-02-15T00:28:50;35.70;;;27.00;;
57319;SDS011;43158;51.026;18.190;2023-02-15T00:31:17;34.30;;;26.70;;
57319;SDS011;43158;51.026;18.190;2023-02-15T00:33:44;41.00;;;33.30;;
57319;SDS011;43158;51.026;18.190;2023-02-15T00:36:10;27.90;;;24.50;;
57319;SDS011;43158;51.026;18.190;2023-02-15T00:38:37;119.00;;;79.20;;
57319;SDS011;43158;51.026;18.190;2023-02-15T00:41:03;50.90;;;34.00;;
57319;SDS011;43158;51.026;18.190;2023-02-15T00:43:31;28.30;;;22.00;;
57319;SDS011;43158;51.026;18.190;2023-02-15T00:45:57;36.30;;;28.20;;
57319;SDS011;43158;51.026;18.190;2023-02-15T00:48:23;27.00;;;21.30;;
57319;SDS011;43158;51.026;18.190;2023-02-15T00:50:50;111.90;;;76.00;;
57319;SDS011;43158;51.026;18.190;2023-02-15T00:53:17;32.60;;;24.80;;
57319;SDS011;43158;51.026;18.190;2023-02-15T00:55:44;27.50;;;22.00;;
57319;SDS011;43158;51.026;18.190;2023-02-15T00:58:11;31.30;;;23.90;;
57319;SDS011;43158;51.026;18.190;2023-02-15T01:00:38;68.80;;;44.50;;
57319;SDS011;43158;51.026;18.190;2023-02-15T01:03:06;31.90;;;25.30;;
57319;SDS011;43158;51.026;18.190;2023-02-15T01:05:38;32.00;;;24.60;;
57319;SDS011;43158;51.026;18.190;2023-02-15T01:08:06;30.80;;;24.70;;
57319;SDS011;43158;51.026;18.190;2023-02-15T01:10:33;30.50;;;26.50;;
57319;SDS011;43158;51.026;18.190;2023-02-15T01:12:59;44.00;;;30.90;;
57319;SDS011;43158;51.026;18.190;2023-02-15T01:15:25;68.20;;;45.00;;
57319;SDS011;43158;51.026;18.190;2023-02-15T01:17:51;137.70;;;79.20;;
57319;SDS011;43158;51.026;18.190;2023-02-15T01:20:23;249.30;;;109.80;;
57319;SDS011;43158;51.026;18.190;2023-02-15T01:22:50;323.40;;;145.30;;
57319;SDS011;43158;51.026;18.190;2023-02-15T01:25:17;71.20;;;41.40;;
57319;SDS011;43158;51.026;18.190;2023-02-15T01:27:44;37.60;;;28.00;;
57319;SDS011;43158;51.026;18.190;2023-02-15T01:30:10;85.90;;;51.20;;
57319;SDS011;43158;51.026;18.190;2023-02-15T01:32:37;135.20;;;74.30;;
57319;SDS011;43158;51.026;18.190;2023-02-15T01:35:03;105.40;;;58.70;;
57319;SDS011;43158;51.026;18.190;2023-02-15T01:37:30;147.80;;;88.70;;
57319;SDS011;43158;51.026;18.190;2023-02-15T01:39:57;56.50;;;41.00;;
57319;SDS011;43158;51.026;18.190;2023-02-15T01:42:26;47.60;;;35.90;;
57319;SDS011;43158;51.026;18.190;2023-02-15T01:44:54;53.00;;;42.00;;
57319;SDS011;43158;51.026;18.190;2023-02-15T01:53:02;38.40;;;26.10;;
57319;SDS011;43158;51.026;18.190;2023-02-15T01:55:39;32.00;;;25.80;;
57319;SDS011;43158;51.026;18.190;2023-02-15T01:58:07;29.20;;;22.90;;
57319;SDS011;43158;51.026;18.190;2023-02-15T02:00:33;28.10;;;24.10;;
57319;SDS011;43158;51.026;18.190;2023-02-15T02:03:00;26.30;;;22.80;;
57319;SDS011;43158;51.026;18.190;2023-02-15T02:05:27;26.30;;;22.90;;
57319;SDS011;43158;51.026;18.190;2023-02-15T02:07:54;26.80;;;23.00;;
57319;SDS011;43158;51.026;18.190;2023-02-15T02:10:24;26.90;;;22.50;;
57319;SDS011;43158;51.026;18.190;2023-02-15T02:13:00;26.40;;;22.10;;
57319;SDS011;43158;51.026;18.190;2023-02-15T02:15:33;23.20;;;19.80;;
57319;SDS011;43158;51.026;18.190;2023-02-15T02:20:52;26.10;;;20.50;;
57319;SDS011;43158;51.026;18.190;2023-02-15T02:23:37;20.50;;;17.90;;
57319;SDS011;43158;51.026;18.190;2023-02-15T02:36:51;18.20;;;16.30;;
57319;SDS011;43158;51.026;18.190;2023-02-15T02:39:21;18.70;;;16.40;;
57319;SDS011;43158;51.026;18.190;2023-02-15T02:42:01;18.80;;;16.80;;
57319;SDS011;43158;51.026;18.190;2023-02-15T02:44:35;22.20;;;18.70;;
57319;SDS011;43158;51.026;18.190;2023-02-15T02:47:08;22.00;;;18.80;;
57319;SDS011;43158;51.026;18.190;2023-02-15T02:49:37;21.50;;;19.40;;
57319;SDS011;43158;51.026;18.190;2023-02-15T02:52:06;23.20;;;19.70;;
57319;SDS011;43158;51.026;18.190;2023-02-15T02:54:34;23.00;;;20.50;;
57319;SDS011;43158;51.026;18.190;2023-02-15T02:57:03;22.60;;;20.00;;
57319;SDS011;43158;51.026;18.190;2023-02-15T02:59:32;20.60;;;18.60;;
57319;SDS011;43158;51.026;18.190;2023-02-15T03:02:02;22.00;;;19.70;;
57319;SDS011;43158;51.026;18.190;2023-02-15T03:04:36;20.70;;;18.60;;
57319;SDS011;43158;51.026;18.190;2023-02-15T03:07:07;20.60;;;18.00;;
57319;SDS011;43158;51.026;18.190;2023-02-15T03:09:36;20.40;;;17.70;;
57319;SDS011;43158;51.026;18.190;2023-02-15T03:12:09;28.60;;;25.50;;
57319;SDS011;43158;51.026;18.190;2023-02-15T03:14:36;33.30;;;28.80;;
57319;SDS011;43158;51.026;18.190;2023-02-15T03:17:03;20.90;;;18.60;;
57319;SDS011;43158;51.026;18.190;2023-02-15T03:19:31;22.40;;;18.20;;
57319;SDS011;43158;51.026;18.190;2023-02-15T03:22:00;30.60;;;25.20;;
57319;SDS011;43158;51.026;18.190;2023-02-15T03:24:36;23.60;;;21.30;;
57319;SDS011;43158;51.026;18.190;2023-02-15T03:27:03;26.00;;;21.50;;
57319;SDS011;43158;51.026;18.190;2023-02-15T03:29:32;22.80;;;19.30;;
57319;SDS011;43158;51.026;18.190;2023-02-15T03:32:00;22.70;;;20.40;;
57319;SDS011;43158;51.026;18.190;2023-02-15T03:34:28;32.30;;;24.50;;
57319;SDS011;43158;51.026;18.190;2023-02-15T03:39:42;20.20;;;18.20;;
57319;SDS011;43158;51.026;18.190;2023-02-15T03:42:16;33.20;;;28.30;;
57319;SDS011;43158;51.026;18.190;2023-02-15T03:44:51;21.90;;;18.90;;
57319;SDS011;43158;51.026;18.190;2023-02-15T03:47:31;17.20;;;15.40;;
57319;SDS011;43158;51.026;18.190;2023-02-15T03:50:02;17.00;;;15.20;;
57319;SDS011;43158;51.026;18.190;2023-02-15T03:52:29;17.10;;;15.30;;
57319;SDS011;43158;51.026;18.190;2023-02-15T03:54:57;17.60;;;15.40;;
57319;SDS011;43158;51.026;18.190;2023-02-15T03:57:27;16.80;;;15.10;;
57319;SDS011;43158;51.026;18.190;2023-02-15T04:00:22;16.50;;;14.70;;
57319;SDS011;43158;51.026;18.190;2023-02-15T04:05:46;17.10;;;15.30;;
57319;SDS011;43158;51.026;18.190;2023-02-15T04:08:12;17.60;;;15.70;;
57319;SDS011;43158;51.026;18.190;2023-02-15T04:10:39;18.10;;;16.30;;
57319;SDS011;43158;51.026;18.190;2023-02-15T04:13:18;19.80;;;15.80;;
57319;SDS011;43158;51.026;18.190;2023-02-15T04:15:45;18.30;;;16.40;;
57319;SDS011;43158;51.026;18.190;2023-02-15T04:18:33;17.70;;;16.00;;
57319;SDS011;43158;51.026;18.190;2023-02-15T04:21:18;18.40;;;16.50;;
57319;SDS011;43158;51.026;18.190;2023-02-15T04:24:03;22.80;;;18.50;;
57319;SDS011;43158;51.026;18.190;2023-02-15T04:26:48;20.10;;;16.10;;
57319;SDS011;43158;51.026;18.190;2023-02-15T04:29:23;16.90;;;15.20;;
57319;SDS011;43158;51.026;18.190;2023-02-15T04:31:51;18.10;;;16.30;;
57319;SDS011;43158;51.026;18.190;2023-02-15T04:34:17;18.00;;;15.70;;
57319;SDS011;43158;51.026;18.190;2023-02-15T04:36:44;19.10;;;15.00;;
57319;SDS011;43158;51.026;18.190;2023-02-15T04:39:12;15.70;;;14.10;;
57319;SDS011;43158;51.026;18.190;2023-02-15T04:41:39;21.70;;;16.30;;
57319;SDS011;43158;51.026;18.190;2023-02-15T04:44:05;16.50;;;14.80;;
57319;SDS011;43158;51.026;18.190;2023-02-15T04:46:32;17.70;;;15.90;;
57319;SDS011;43158;51.026;18.190;2023-02-15T04:48:59;17.90;;;16.00;;
57319;SDS011;43158;51.026;18.190;2023-02-15T04:51:25;18.60;;;16.70;;
57319;SDS011;43158;51.026;18.190;2023-02-15T04:53:51;18.20;;;16.30;;
57319;SDS011;43158;51.026;18.190;2023-02-15T04:56:20;18.90;;;17.10;;
57319;SDS011;43158;51.026;18.190;2023-02-15T04:58:47;18.40;;;16.50;;
57319;SDS011;43158;51.026;18.190;2023-02-15T05:01:14;18.50;;;16.50;;
57319;SDS011;43158;51.026;18.190;2023-02-15T05:03:41;20.90;;;15.90;;
57319;SDS011;43158;51.026;18.190;2023-02-15T05:06:07;19.20;;;17.30;;
57319;SDS011;43158;51.026;18.190;2023-02-15T05:08:33;23.80;;;19.30;;
57319;SDS011;43158;51.026;18.190;2023-02-15T05:10:59;21.00;;;17.40;;
57319;SDS011;43158;51.026;18.190;2023-02-15T05:13:25;22.50;;;20.30;;
57319;SDS011;43158;51.026;18.190;2023-02-15T05:15:52;21.40;;;19.30;;
57319;SDS011;43158;51.026;18.190;2023-02-15T05:18:19;19.80;;;18.00;;
57319;SDS011;43158;51.026;18.190;2023-02-15T05:20:45;19.50;;;17.70;;
57319;SDS011;43158;51.026;18.190;2023-02-15T05:23:11;20.40;;;18.20;;
57319;SDS011;43158;51.026;18.190;2023-02-15T05:25:37;21.30;;;19.10;;
57319;SDS011;43158;51.026;18.190;2023-02-15T05:28:22;20.60;;;18.50;;
57319;SDS011;43158;51.026;18.190;2023-02-15T05:30:49;21.70;;;19.60;;
57319;SDS011;43158;51.026;18.190;2023-02-15T05:33:16;21.60;;;19.40;;
57319;SDS011;43158;51.026;18.190;2023-02-15T05:35:42;23.60;;;21.20;;
57319;SDS011;43158;51.026;18.190;2023-02-15T05:38:08;22.20;;;20.10;;
57319;SDS011;43158;51.026;18.190;2023-02-15T05:40:35;21.10;;;19.00;;
57319;SDS011;43158;51.026;18.190;2023-02-15T05:43:01;22.70;;;20.40;;
57319;SDS011;43158;51.026;18.190;2023-02-15T05:45:27;21.80;;;19.50;;
57319;SDS011;43158;51.026;18.190;2023-02-15T05:47:53;20.20;;;18.10;;
57319;SDS011;43158;51.026;18.190;2023-02-15T05:50:19;23.60;;;19.40;;
57319;SDS011;43158;51.026;18.190;2023-02-15T05:52:45;23.30;;;20.90;;
57319;SDS011;43158;51.026;18.190;2023-02-15T05:55:11;25.00;;;20.30;;
57319;SDS011;43158;51.026;18.190;2023-02-15T05:57:37;22.20;;;19.80;;
57319;SDS011;43158;51.026;18.190;2023-02-15T06:00:04;21.40;;;19.20;;
57319;SDS011;43158;51.026;18.190;2023-02-15T06:02:33;21.60;;;19.50;;
57319;SDS011;43158;51.026;18.190;2023-02-15T06:04:59;22.00;;;19.80;;
57319;SDS011;43158;51.026;18.190;2023-02-15T06:07:25;22.10;;;19.70;;
57319;SDS011;43158;51.026;18.190;2023-02-15T06:09:51;25.80;;;21.70;;
57319;SDS011;43158;51.026;18.190;2023-02-15T06:12:18;23.90;;;21.40;;
57319;SDS011;43158;51.026;18.190;2023-02-15T06:14:44;31.20;;;24.20;;
57319;SDS011;43158;51.026;18.190;2023-02-15T06:17:10;28.00;;;25.00;;
57319;SDS011;43158;51.026;18.190;2023-02-15T06:19:37;30.60;;;23.60;;
57319;SDS011;43158;51.026;18.190;2023-02-15T06:22:03;29.30;;;26.10;;
57319;SDS011;43158;51.026;18.190;2023-02-15T06:24:29;32.70;;;28.00;;
57319;SDS011;43158;51.026;18.190;2023-02-15T06:26:56;30.00;;;26.70;;
57319;SDS011;43158;51.026;18.190;2023-02-15T06:29:21;32.50;;;26.60;;
57319;SDS011;43158;51.026;18.190;2023-02-15T06:31:48;35.40;;;29.50;;
57319;SDS011;43158;51.026;18.190;2023-02-15T06:34:15;35.00;;;28.70;;
57319;SDS011;43158;51.026;18.190;2023-02-15T06:36:41;40.90;;;30.30;;
57319;SDS011;43158;51.026;18.190;2023-02-15T06:39:07;33.30;;;25.80;;
57319;SDS011;43158;51.026;18.190;2023-02-15T06:41:33;29.50;;;24.40;;
57319;SDS011;43158;51.026;18.190;2023-02-15T06:43:59;35.20;;;30.00;;
57319;SDS011;43158;51.026;18.190;2023-02-15T06:46:25;39.00;;;32.30;;
57319;SDS011;43158;51.026;18.190;2023-02-15T06:48:51;46.00;;;37.80;;
57319;SDS011;43158;51.026;18.190;2023-02-15T06:51:17;34.10;;;29.20;;
57319;SDS011;43158;51.026;18.190;2023-02-15T06:53:43;32.90;;;27.90;;
57319;SDS011;43158;51.026;18.190;2023-02-15T06:56:09;33.20;;;29.60;;
57319;SDS011;43158;51.026;18.190;2023-02-15T06:58:36;37.30;;;29.90;;
57319;SDS011;43158;51.026;18.190;2023-02-15T07:01:03;32.70;;;29.20;;
57319;SDS011;43158;51.026;18.190;2023-02-15T07:03:29;35.70;;;31.60;;
57319;SDS011;43158;51.026;18.190;2023-02-15T07:05:56;33.40;;;29.70;;
57319;SDS011;43158;51.026;18.190;2023-02-15T07:08:23;31.90;;;27.90;;
57319;SDS011;43158;51.026;18.190;2023-02-15T07:10:50;33.30;;;27.80;;
57319;SDS011;43158;51.026;18.190;2023-02-15T07:13:17;33.20;;;29.50;;
57319;SDS011;43158;51.026;18.190;2023-02-15T07:15:44;37.50;;;30.30;;
57319;SDS011;43158;51.026;18.190;2023-02-15T07:18:11;41.30;;;32.30;;
57319;SDS011;43158;51.026;18.190;2023-02-15T07:20:38;42.80;;;34.20;;
57319;SDS011;43158;51.026;18.190;2023-02-15T07:23:10;40.00;;;34.00;;
57319;SDS011;43158;51.026;18.190;2023-02-15T07:25:36;39.90;;;34.90;;
57319;SDS011;43158;51.026;18.190;2023-02-15T07:28:03;37.20;;;33.10;;
57319;SDS011;43158;51.026;18.190;2023-02-15T07:30:29;35.90;;;28.50;;
57319;SDS011;43158;51.026;18.190;2023-02-15T07:32:56;37.00;;;29.10;;
57319;SDS011;43158;51.026;18.190;2023-02-15T07:35:48;39.70;;;33.60;;
57319;SDS011;43158;51.026;18.190;2023-02-15T07:38:15;36.50;;;29.80;;
57319;SDS011;43158;51.026;18.190;2023-02-15T07:40:41;40.20;;;33.00;;
57319;SDS011;43158;51.026;18.190;2023-02-15T07:43:07;35.90;;;28.90;;
57319;SDS011;43158;51.026;18.190;2023-02-15T07:45:34;33.30;;;26.80;;
57319;SDS011;43158;51.026;18.190;2023-02-15T07:48:01;37.80;;;33.30;;
57319;SDS011;43158;51.026;18.190;2023-02-15T07:50:27;35.00;;;29.30;;
57319;SDS011;43158;51.026;18.190;2023-02-15T07:52:53;40.70;;;34.60;;
57319;SDS011;43158;51.026;18.190;2023-02-15T07:55:21;38.80;;;30.40;;
57319;SDS011;43158;51.026;18.190;2023-02-15T07:57:48;38.70;;;33.20;;
57319;SDS011;43158;51.026;18.190;2023-02-15T08:00:15;37.60;;;30.20;;
57319;SDS011;43158;51.026;18.190;2023-02-15T08:02:42;36.10;;;30.00;;
57319;SDS011;43158;51.026;18.190;2023-02-15T08:05:13;36.10;;;30.60;;
57319;SDS011;43158;51.026;18.190;2023-02-15T08:07:40;32.10;;;26.20;;
57319;SDS011;43158;51.026;18.190;2023-02-15T08:10:06;41.80;;;31.70;;
57319;SDS011;43158;51.026;18.190;2023-02-15T08:12:32;34.10;;;27.30;;
57319;SDS011;43158;51.026;18.190;2023-02-15T08:14:58;38.70;;;34.50;;
57319;SDS011;43158;51.026;18.190;2023-02-15T08:17:24;30.20;;;23.30;;
57319;SDS011;43158;51.026;18.190;2023-02-15T08:19:54;31.90;;;26.60;;
57319;SDS011;43158;51.026;18.190;2023-02-15T08:22:20;32.60;;;27.70;;
57319;SDS011;43158;51.026;18.190;2023-02-15T08:24:46;33.40;;;25.90;;
57319;SDS011;43158;51.026;18.190;2023-02-15T08:27:12;31.00;;;25.10;;
57319;SDS011;43158;51.026;18.190;2023-02-15T08:29:38;41.00;;;30.80;;
57319;SDS011;43158;51.026;18.190;2023-02-15T08:32:08;34.70;;;28.70;;
57319;SDS011;43158;51.026;18.190;2023-02-15T08:34:37;42.70;;;34.20;;
57319;SDS011;43158;51.026;18.190;2023-02-15T08:37:04;41.90;;;33.40;;
57319;SDS011;43158;51.026;18.190;2023-02-15T08:39:31;40.50;;;34.10;;
57319;SDS011;43158;51.026;18.190;2023-02-15T08:41:57;37.90;;;30.60;;
57319;SDS011;43158;51.026;18.190;2023-02-15T08:44:24;38.80;;;31.30;;
57319;SDS011;43158;51.026;18.190;2023-02-15T08:46:50;36.20;;;29.30;;
57319;SDS011;43158;51.026;18.190;2023-02-15T08:49:17;29.90;;;24.40;;
57319;SDS011;43158;51.026;18.190;2023-02-15T08:51:43;33.60;;;24.00;;
57319;SDS011;43158;51.026;18.190;2023-02-15T08:54:11;36.50;;;28.30;;
57319;SDS011;43158;51.026;18.190;2023-02-15T08:56:38;30.60;;;22.00;;
57319;SDS011;43158;51.026;18.190;2023-02-15T08:59:06;34.40;;;25.90;;
57319;SDS011;43158;51.026;18.190;2023-02-15T09:01:33;40.50;;;31.70;;
57319;SDS011;43158;51.026;18.190;2023-02-15T09:04:01;43.90;;;35.70;;
57319;SDS011;43158;51.026;18.190;2023-02-15T09:06:28;39.10;;;31.10;;
57319;SDS011;43158;51.026;18.190;2023-02-15T09:08:54;37.80;;;28.30;;
57319;SDS011;43158;51.026;18.190;2023-02-15T09:11:26;40.50;;;30.80;;
57319;SDS011;43158;51.026;18.190;2023-02-15T09:13:57;43.50;;;32.40;;
57319;SDS011;43158;51.026;18.190;2023-02-15T09:16:26;33.30;;;25.90;;
57319;SDS011;43158;51.026;18.190;2023-02-15T09:18:53;44.40;;;31.90;;
57319;SDS011;43158;51.026;18.190;2023-02-15T09:21:21;44.80;;;34.40;;
57319;SDS011;43158;51.026;18.190;2023-02-15T09:23:48;51.60;;;33.50;;
57319;SDS011;43158;51.026;18.190;2023-02-15T09:26:19;52.00;;;35.80;;
57319;SDS011;43158;51.026;18.190;2023-02-15T09:28:46;40.40;;;23.40;;
57319;SDS011;43158;51.026;18.190;2023-02-15T09:31:14;44.10;;;31.00;;
57319;SDS011;43158;51.026;18.190;2023-02-15T09:33:40;46.30;;;32.60;;
57319;SDS011;43158;51.026;18.190;2023-02-15T09:36:16;46.30;;;30.70;;
57319;SDS011;43158;51.026;18.190;2023-02-15T09:38:45;52.70;;;34.20;;
57319;SDS011;43158;51.026;18.190;2023-02-15T09:49:16;45.80;;;33.70;;
57319;SDS011;43158;51.026;18.190;2023-02-15T09:54:41;32.50;;;24.80;;
57319;SDS011;43158;51.026;18.190;2023-02-15T09:57:23;48.90;;;34.50;;
57319;SDS011;43158;51.026;18.190;2023-02-15T10:00:18;47.80;;;33.80;;
57319;SDS011;43158;51.026;18.190;2023-02-15T10:02:44;43.40;;;33.30;;
57319;SDS011;43158;51.026;18.190;2023-02-15T10:05:21;47.40;;;32.30;;
57319;SDS011;43158;51.026;18.190;2023-02-15T10:16:01;31.60;;;22.70;;
57319;SDS011;43158;51.026;18.190;2023-02-15T10:18:55;50.40;;;37.10;;
57319;SDS011;43158;51.026;18.190;2023-02-15T10:26:35;48.20;;;38.20;;
57319;SDS011;43158;51.026;18.190;2023-02-15T10:31:49;55.90;;;44.10;;
57319;SDS011;43158;51.026;18.190;2023-02-15T10:34:20;38.00;;;28.10;;
57319;SDS011;43158;51.026;18.190;2023-02-15T10:36:56;49.70;;;39.50;;
57319;SDS011;43158;51.026;18.190;2023-02-15T10:39:27;51.10;;;39.50;;
57319;SDS011;43158;51.026;18.190;2023-02-15T10:44:31;49.90;;;37.80;;
57319;SDS011;43158;51.026;18.190;2023-02-15T10:52:33;44.30;;;36.20;;
57319;SDS011;43158;51.026;18.190;2023-02-15T10:55:15;44.70;;;38.60;;
57319;SDS011;43158;51.026;18.190;2023-02-15T10:57:55;47.60;;;41.30;;
57319;SDS011;43158;51.026;18.190;2023-02-15T11:00:32;44.90;;;37.00;;
57319;SDS011;43158;51.026;18.190;2023-02-15T11:05:58;39.50;;;34.70;;
57319;SDS011;43158;51.026;18.190;2023-02-15T11:08:25;41.70;;;37.20;;
57319;SDS011;43158;51.026;18.190;2023-02-15T11:10:59;44.70;;;36.90;;
57319;SDS011;43158;51.026;18.190;2023-02-15T11:13:28;48.90;;;39.70;;
57319;SDS011;43158;51.026;18.190;2023-02-15T11:16:16;52.10;;;45.10;;
57319;SDS011;43158;51.026;18.190;2023-02-15T11:18:44;42.50;;;35.30;;
57319;SDS011;43158;51.026;18.190;2023-02-15T11:21:22;38.70;;;34.10;;
57319;SDS011;43158;51.026;18.190;2023-02-15T11:23:50;42.90;;;36.80;;
57319;SDS011;43158;51.026;18.190;2023-02-15T11:26:31;38.00;;;32.90;;
57319;SDS011;43158;51.026;18.190;2023-02-15T11:31:56;41.50;;;36.90;;
57319;SDS011;43158;51.026;18.190;2023-02-15T11:34:26;41.90;;;37.40;;
57319;SDS011;43158;51.026;18.190;2023-02-15T11:36:54;37.10;;;33.30;;
57319;SDS011;43158;51.026;18.190;2023-02-15T11:39:22;42.70;;;34.10;;
57319;SDS011;43158;51.026;18.190;2023-02-15T11:41:51;42.70;;;35.20;;
57319;SDS011;43158;51.026;18.190;2023-02-15T11:46:46;41.80;;;36.40;;
57319;SDS011;43158;51.026;18.190;2023-02-15T11:49:20;40.20;;;35.90;;
57319;SDS011;43158;51.026;18.190;2023-02-15T11:51:49;40.50;;;36.30;;
57319;SDS011;43158;51.026;18.190;2023-02-15T11:54:21;41.10;;;36.40;;
57319;SDS011;43158;51.026;18.190;2023-02-15T11:56:50;39.20;;;35.20;;
57319;SDS011;43158;51.026;18.190;2023-02-15T11:59:21;41.20;;;36.80;;
57319;SDS011;43158;51.026;18.190;2023-02-15T12:01:51;35.20;;;31.50;;
57319;SDS011;43158;51.026;18.190;2023-02-15T12:06:53;35.30;;;31.60;;
57319;SDS011;43158;51.026;18.190;2023-02-15T12:11:54;31.80;;;28.50;;
57319;SDS011;43158;51.026;18.190;2023-02-15T12:14:47;31.60;;;27.20;;
57319;SDS011;43158;51.026;18.190;2023-02-15T12:17:14;31.80;;;28.00;;
57319;SDS011;43158;51.026;18.190;2023-02-15T12:19:41;33.50;;;30.00;;
57319;SDS011;43158;51.026;18.190;2023-02-15T12:22:21;34.00;;;30.50;;
57319;SDS011;43158;51.026;18.190;2023-02-15T12:24:49;31.70;;;28.50;;
57319;SDS011;43158;51.026;18.190;2023-02-15T12:27:32;30.20;;;27.30;;
57319;SDS011;43158;51.026;18.190;2023-02-15T12:30:06;28.40;;;25.60;;
57319;SDS011;43158;51.026;18.190;2023-02-15T12:32:46;26.60;;;23.80;;
57319;SDS011;43158;51.026;18.190;2023-02-15T12:35:14;28.50;;;25.80;;
57319;SDS011;43158;51.026;18.190;2023-02-15T12:37:51;28.60;;;25.80;;
57319;SDS011;43158;51.026;18.190;2023-02-15T12:40:19;25.90;;;23.20;;
57319;SDS011;43158;51.026;18.190;2023-02-15T12:42:46;26.90;;;24.30;;
57319;SDS011;43158;51.026;18.190;2023-02-15T12:45:23;25.80;;;22.80;;
57319;SDS011;43158;51.026;18.190;2023-02-15T12:48:09;27.60;;;24.70;;
57319;SDS011;43158;51.026;18.190;2023-02-15T12:50:35;27.60;;;24.90;;
57319;SDS011;43158;51.026;18.190;2023-02-15T12:53:13;27.80;;;25.30;;
57319;SDS011;43158;51.026;18.190;2023-02-15T12:55:49;25.50;;;23.00;;
57319;SDS011;43158;51.026;18.190;2023-02-15T12:58:16;25.80;;;23.40;;
57319;SDS011;43158;51.026;18.190;2023-02-15T13:00:43;29.10;;;26.00;;
57319;SDS011;43158;51.026;18.190;2023-02-15T13:03:20;27.90;;;25.20;;
57319;SDS011;43158;51.026;18.190;2023-02-15T13:05:56;27.80;;;25.00;;
57319;SDS011;43158;51.026;18.190;2023-02-15T13:11:25;28.00;;;25.30;;
57319;SDS011;43158;51.026;18.190;2023-02-15T13:14:15;29.00;;;26.10;;
57319;SDS011;43158;51.026;18.190;2023-02-15T13:21:44;30.10;;;27.10;;
57319;SDS011;43158;51.026;18.190;2023-02-15T13:24:19;31.20;;;28.20;;
57319;SDS011;43158;51.026;18.190;2023-02-15T13:26:56;30.60;;;27.60;;
57319;SDS011;43158;51.026;18.190;2023-02-15T13:29:36;31.90;;;28.50;;
57319;SDS011;43158;51.026;18.190;2023-02-15T13:34:48;30.60;;;27.60;;
57319;SDS011;43158;51.026;18.190;2023-02-15T13:37:19;27.60;;;24.80;;
57319;SDS011;43158;51.026;18.190;2023-02-15T13:42:46;31.40;;;28.30;;
57319;SDS011;43158;51.026;18.190;2023-02-15T13:50:18;33.10;;;29.90;;
57319;SDS011;43158;51.026;18.190;2023-02-15T13:52:51;34.00;;;30.60;;
57319;SDS011;43158;51.026;18.190;2023-02-15T14:01:02;30.00;;;27.10;;
57319;SDS011;43158;51.026;18.190;2023-02-15T14:03:39;30.80;;;27.00;;
57319;SDS011;43158;51.026;18.190;2023-02-15T14:06:14;30.00;;;27.10;;
57319;SDS011;43158;51.026;18.190;2023-02-15T14:09:07;31.40;;;28.30;;
57319;SDS011;43158;51.026;18.190;2023-02-15T14:11:41;30.10;;;27.20;;
57319;SDS011;43158;51.026;18.190;2023-02-15T14:27:23;31.90;;;28.70;;
57319;SDS011;43158;51.026;18.190;2023-02-15T14:30:02;30.00;;;27.10;;
57319;SDS011;43158;51.026;18.190;2023-02-15T14:32:33;30.80;;;27.50;;
57319;SDS011;43158;51.026;18.190;2023-02-15T14:35:04;30.90;;;27.70;;
57319;SDS011;43158;51.026;18.190;2023-02-15T14:43:15;32.10;;;28.80;;
57319;SDS011;43158;51.026;18.190;2023-02-15T14:45:54;34.40;;;30.80;;
57319;SDS011;43158;51.026;18.190;2023-02-15T14:54:03;33.60;;;30.00;;
57319;SDS011;43158;51.026;18.190;2023-02-15T14:56:29;33.40;;;30.20;;
57319;SDS011;43158;51.026;18.190;2023-02-15T14:58:56;32.70;;;29.50;;
57319;SDS011;43158;51.026;18.190;2023-02-15T15:01:27;31.70;;;28.50;;
57319;SDS011;43158;51.026;18.190;2023-02-15T15:03:54;33.60;;;29.70;;
57319;SDS011;43158;51.026;18.190;2023-02-15T15:06:33;31.30;;;28.10;;
57319;SDS011;43158;51.026;18.190;2023-02-15T15:14:07;33.70;;;30.20;;
57319;SDS011;43158;51.026;18.190;2023-02-15T15:29:43;33.20;;;29.90;;
57319;SDS011;43158;51.026;18.190;2023-02-15T15:32:10;32.80;;;29.40;;
57319;SDS011;43158;51.026;18.190;2023-02-15T15:37:41;35.60;;;30.20;;
57319;SDS011;43158;51.026;18.190;2023-02-15T15:40:19;33.30;;;29.60;;
57319;SDS011;43158;51.026;18.190;2023-02-15T15:48:01;41.70;;;36.00;;
57319;SDS011;43158;51.026;18.190;2023-02-15T15:50:29;41.40;;;35.30;;
57319;SDS011;43158;51.026;18.190;2023-02-15T15:52:58;40.30;;;34.00;;
57319;SDS011;43158;51.026;18.190;2023-02-15T15:55:26;39.10;;;32.80;;
57319;SDS011;43158;51.026;18.190;2023-02-15T15:57:54;39.50;;;33.80;;
57319;SDS011;43158;51.026;18.190;2023-02-15T16:00:27;34.00;;;28.30;;
57319;SDS011;43158;51.026;18.190;2023-02-15T16:02:56;35.40;;;30.30;;
57319;SDS011;43158;51.026;18.190;2023-02-15T16:05:22;35.60;;;30.60;;
57319;SDS011;43158;51.026;18.190;2023-02-15T16:07:48;39.80;;;32.60;;
57319;SDS011;43158;51.026;18.190;2023-02-15T16:10:22;37.20;;;29.40;;
57319;SDS011;43158;51.026;18.190;2023-02-15T16:12:48;35.10;;;27.30;;
57319;SDS011;43158;51.026;18.190;2023-02-15T16:15:16;32.00;;;27.30;;
57319;SDS011;43158;51.026;18.190;2023-02-15T16:17:44;35.20;;;26.80;;
57319;SDS011;43158;51.026;18.190;2023-02-15T16:20:15;35.40;;;28.80;;
57319;SDS011;43158;51.026;18.190;2023-02-15T16:22:45;37.80;;;26.90;;
57319;SDS011;43158;51.026;18.190;2023-02-15T16:25:25;34.70;;;25.60;;
57319;SDS011;43158;51.026;18.190;2023-02-15T16:27:56;34.10;;;26.40;;
57319;SDS011;43158;51.026;18.190;2023-02-15T16:32:48;33.90;;;25.70;;
57319;SDS011;43158;51.026;18.190;2023-02-15T16:35:19;33.00;;;25.50;;
57319;SDS011;43158;51.026;18.190;2023-02-15T16:37:45;31.50;;;23.50;;
57319;SDS011;43158;51.026;18.190;2023-02-15T16:42:51;39.40;;;31.20;;
57319;SDS011;43158;51.026;18.190;2023-02-15T16:45:18;35.00;;;26.80;;
57319;SDS011;43158;51.026;18.190;2023-02-15T16:47:46;36.00;;;25.20;;
57319;SDS011;43158;51.026;18.190;2023-02-15T16:50:23;39.70;;;31.10;;
57319;SDS011;43158;51.026;18.190;2023-02-15T16:52:49;37.70;;;29.20;;
57319;SDS011;43158;51.026;18.190;2023-02-15T16:55:24;32.30;;;26.50;;
57319;SDS011;43158;51.026;18.190;2023-02-15T16:57:51;31.50;;;27.00;;